Resurrection — WDE5499 — position and weather

sailwx.info

Track history (hours):
 
Tides and Currents Weather Stations Pressure Air Temp Water Temp Dewpoint Dewpoint Depression Visibility Wind Speed Wind Dir Waves Ship Positions

Resurrection

Owner: Marquette Transportation Company Gulf-Inland, LLC, Jefferson, LA. More information available from US FCC via Universal Licensing System and Coast Guard Vessel Documentation Center.

Last reported at 2017-Sep-13 23:13 UTC. Time now 2017-Sep-21 12:26 UTC.
Position N 30°03' W 093°43'.

Length 203 m.

Type: . MMSI: 367367620.

Date/timePositionNaut miles runAvg speedWind from/ knotsBaromVisibWave heightAir tempDewpointWater temp
2017-Sep-13 23:13N 30°03' W 093°43'2 4.5
2017-Sep-13 22:43N 30°04' W 093°41'1 4.8
2017-Sep-13 22:29N 30°04' W 093°39'2 4.3
2017-Sep-13 22:00N 30°04' W 093°37'2 3.7
2017-Sep-13 21:30N 30°04' W 093°35'2 3.1
2017-Sep-13 20:59N 30°04' W 093°33'1 3.0
2017-Sep-13 20:30N 30°04' W 093°31'2 3.1
2017-Sep-13 20:00N 30°04' W 093°30'2 3.0
2017-Sep-13 19:30N 30°04' W 093°28'1 2.9
2017-Sep-13 19:00N 30°04' W 093°26'1 3.0
2017-Sep-13 18:30N 30°04' W 093°24'1 2.9
2017-Sep-13 18:00N 30°04' W 093°23'1 2.5
2017-Sep-13 17:30N 30°04' W 093°21'1 2.9
2017-Sep-13 17:00N 30°05' W 093°20'2 3.5
2017-Sep-13 16:30N 30°06' W 093°19'0 0.0
2017-Sep-13 16:00N 30°06' W 093°19'1 1.0
2017-Sep-13 15:30N 30°06' W 093°18'2 4.0
2017-Sep-13 15:00N 30°05' W 093°17'1 1.3
2017-Sep-13 14:30N 30°04' W 093°16'0 0.2
2017-Sep-13 14:00N 30°04' W 093°16'0 0.2
2017-Sep-13 13:30N 30°04' W 093°16'0 0.6
2017-Sep-13 13:00N 30°04' W 093°16'1 2.2
2017-Sep-13 12:30N 30°03' W 093°16'1 1.0
2017-Sep-13 12:00N 30°02' W 093°15'2 4.1
2017-Sep-13 11:30N 30°01' W 093°14'2 4.4
2017-Sep-13 11:00N 29°59' W 093°12'2 4.5
2017-Sep-13 10:30N 29°57' W 093°11'2 4.0
2017-Sep-13 10:00N 29°56' W 093°09'4 3.9
2017-Sep-13 09:00N 29°56' W 093°04'0 0.0
2017-Sep-13 08:28N 29°56' W 093°04'40 3.1
2017-Sep-12 19:31N 29°50' W 092°18'0 2.1
2017-Sep-12 19:30N 29°50' W 092°18'1 2.9
2017-Sep-12 19:00N 29°49' W 092°17'1 2.9
2017-Sep-12 18:30N 29°48' W 092°16'2 3.1
2017-Sep-12 18:00N 29°48' W 092°14'2 3.3
2017-Sep-12 17:31N 29°47' W 092°12'0 0.3
2017-Sep-12 17:00N 29°47' W 092°12'1 1.6
2017-Sep-12 16:31N 29°47' W 092°11'1 2.4
2017-Sep-12 16:01N 29°47' W 092°10'2 3.5
2017-Sep-12 15:30N 29°47' W 092°08'2 3.7
2017-Sep-12 15:01N 29°48' W 092°06'2 3.6
2017-Sep-12 14:30N 29°48' W 092°04'  
2017-Sep-09 15:28N 29°49' W 092°04'3 6.3
2017-Sep-09 15:00N 29°48' W 092°07'3 6.0
2017-Sep-09 14:29N 29°47' W 092°10'2 4.9
2017-Sep-09 13:59N 29°47' W 092°13'2 4.2
2017-Sep-09 13:29N 29°48' W 092°15'3 5.4
2017-Sep-09 13:00N 29°50' W 092°18'29 5.5
2017-Sep-09 07:47N 29°58' W 092°49'2 5.9
2017-Sep-09 07:30N 29°57' W 092°51'3 5.7
2017-Sep-09 06:57N 29°56' W 092°55'2 5.4
2017-Sep-09 06:30N 29°56' W 092°57'9 4.8
2017-Sep-09 04:34N 29°56' W 093°08'0 5.3
2017-Sep-09 04:29N 29°56' W 093°08'3 4.8
2017-Sep-09 03:50N 29°58' W 093°11'3 5.0
2017-Sep-09 03:10N 30°01' W 093°14'1 5.0
2017-Sep-09 03:00N 30°01' W 093°14'3 4.4
2017-Sep-09 02:22N 30°04' W 093°16'2 4.5
2017-Sep-09 02:00N 30°05' W 093°17'2 3.2
2017-Sep-09 01:21N 30°06' W 093°19'1 3.1
2017-Sep-09 01:00N 30°05' W 093°20'2 4.7
2017-Sep-09 00:30N 30°04' W 093°22'0 0.4
2017-Sep-09 00:00N 30°04' W 093°22'0 0.1
2017-Sep-08 23:30N 30°04' W 093°22'0 0.0
2017-Sep-08 23:00N 30°04' W 093°22'0 0.0
2017-Sep-08 22:30N 30°04' W 093°22'0 0.0
2017-Sep-08 22:00N 30°04' W 093°22'0 0.1
2017-Sep-08 21:30N 30°04' W 093°22'0 1.0
2017-Sep-08 21:00N 30°04' W 093°22'1 1.3
2017-Sep-08 20:30N 30°04' W 093°21'1 2.7
2017-Sep-08 20:00N 30°05' W 093°20'0 0.2
2017-Sep-08 19:30N 30°05' W 093°20'0 0.4
2017-Sep-08 19:00N 30°05' W 093°20'0 0.0
2017-Sep-08 18:30N 30°05' W 093°20'2 3.0
2017-Sep-08 18:00N 30°06' W 093°18'2 4.0
2017-Sep-08 17:30N 30°05' W 093°17'1 2.3
2017-Sep-08 17:00N 30°04' W 093°16'2 3.3
2017-Sep-08 16:30N 30°05' W 093°17'0 0.0
2017-Sep-08 16:00N 30°05' W 093°17'1 1.6
2017-Sep-08 15:30N 30°05' W 093°18'3 5.1
2017-Sep-08 15:00N 30°04' W 093°20'1 2.4
2017-Sep-08 14:30N 30°04' W 093°21'2 3.5
2017-Sep-08 14:00N 30°05' W 093°20'2 3.9
2017-Sep-08 13:30N 30°06' W 093°18'2 4.2
2017-Sep-08 13:00N 30°05' W 093°17'1 2.2
2017-Sep-08 12:30N 30°04' W 093°16'2 4.8
2017-Sep-08 12:00N 30°05' W 093°18'2 5.0
2017-Sep-08 11:30N 30°04' W 093°20'1 0.9
2017-Sep-08 09:54N 30°06' W 093°19'3 2.7
2017-Sep-08 08:49N 30°04' W 093°16'1 1.7
2017-Sep-08 08:18N 30°04' W 093°16'0 0.2
2017-Sep-08 07:55N 30°04' W 093°16'0 0.2
2017-Sep-08 07:30N 30°04' W 093°16'0 0.1
2017-Sep-08 06:44N 30°04' W 093°16'1 1.8
2017-Sep-08 06:16N 30°03' W 093°16'5 3.7
2017-Sep-08 04:57N 29°59' W 093°12'3 2.8
2017-Sep-08 03:53N 29°57' W 093°10'44 3.4
2017-Sep-07 15:02N 29°50' W 092°19'0 3.0
2017-Sep-07 14:53N 29°50' W 092°19'1 2.7
2017-Sep-07 14:24N 29°50' W 092°18'1 2.8
2017-Sep-07 14:00N 29°49' W 092°17'2 3.1
2017-Sep-07 13:31N 29°48' W 092°15'1 2.8
2017-Sep-07 13:01N 29°48' W 092°14'1 2.8
2017-Sep-07 12:31N 29°47' W 092°12'0 0.4
2017-Sep-07 12:00N 29°47' W 092°12'1 1.7
2017-Sep-07 11:31N 29°47' W 092°11'0 0.0
2017-Sep-07 11:01N 29°47' W 092°11'1 2.3
2017-Sep-07 10:30N 29°47' W 092°10'1 2.6
2017-Sep-07 10:00N 29°47' W 092°08'2 3.0
2017-Sep-07 09:28N 29°48' W 092°07'1 2.9
2017-Sep-07 09:00N 29°48' W 092°05'1 2.8
2017-Sep-07 08:30N 29°49' W 092°04'3 2.6
2017-Sep-07 07:30N 29°49' W 092°01'  
2017-Sep-04 04:26N 29°49' W 092°02'2 5.7
2017-Sep-04 04:01N 29°48' W 092°05'2 5.0
2017-Sep-04 03:31N 29°47' W 092°08'1 1.5
2017-Sep-04 03:00N 29°48' W 092°08'1 2.8
2017-Sep-04 02:31N 29°49' W 092°08'1 2.1
2017-Sep-04 02:00N 29°50' W 092°08'0 0.2
2017-Sep-04 01:31N 29°50' W 092°08'0 0.0
2017-Sep-04 01:01N 29°50' W 092°08'0 0.1
2017-Sep-04 00:31N 29°50' W 092°08'0 0.1
2017-Sep-04 00:01N 29°50' W 092°08'1 2.4
2017-Sep-03 23:30N 29°51' W 092°08'  
Track history (hours):
 
Tides and Currents Weather Stations Pressure Air Temp Water Temp Dewpoint Dewpoint Depression Visibility Wind Speed Wind Dir Waves Ship Positions

Resurrection

Owner: Marquette Transportation Company Gulf-Inland, LLC, Jefferson, LA. More information available from US FCC via Universal Licensing System and Coast Guard Vessel Documentation Center.

Last reported at 2017-Sep-13 23:13 UTC. Time now 2017-Sep-21 12:26 UTC.
Position N 30°03' W 093°43'.

Length 203 m.

Type: . MMSI: 367367620.

Date/timePositionNaut miles runAvg speedWind from/ knotsBaromVisibWave heightAir tempDewpointWater temp
2017-Sep-13 23:13N 30°03' W 093°43'2 4.5
2017-Sep-13 22:43N 30°04' W 093°41'1 4.8
2017-Sep-13 22:29N 30°04' W 093°39'2 4.3
2017-Sep-13 22:00N 30°04' W 093°37'2 3.7
2017-Sep-13 21:30N 30°04' W 093°35'2 3.1
2017-Sep-13 20:59N 30°04' W 093°33'1 3.0
2017-Sep-13 20:30N 30°04' W 093°31'2 3.1
2017-Sep-13 20:00N 30°04' W 093°30'2 3.0
2017-Sep-13 19:30N 30°04' W 093°28'1 2.9
2017-Sep-13 19:00N 30°04' W 093°26'1 3.0
2017-Sep-13 18:30N 30°04' W 093°24'1 2.9
2017-Sep-13 18:00N 30°04' W 093°23'1 2.5
2017-Sep-13 17:30N 30°04' W 093°21'1 2.9
2017-Sep-13 17:00N 30°05' W 093°20'2 3.5
2017-Sep-13 16:30N 30°06' W 093°19'0 0.0
2017-Sep-13 16:00N 30°06' W 093°19'1 1.0
2017-Sep-13 15:30N 30°06' W 093°18'2 4.0
2017-Sep-13 15:00N 30°05' W 093°17'1 1.3
2017-Sep-13 14:30N 30°04' W 093°16'0 0.2
2017-Sep-13 14:00N 30°04' W 093°16'0 0.2
2017-Sep-13 13:30N 30°04' W 093°16'0 0.6
2017-Sep-13 13:00N 30°04' W 093°16'1 2.2
2017-Sep-13 12:30N 30°03' W 093°16'1 1.0
2017-Sep-13 12:00N 30°02' W 093°15'2 4.1
2017-Sep-13 11:30N 30°01' W 093°14'2 4.4
2017-Sep-13 11:00N 29°59' W 093°12'2 4.5
2017-Sep-13 10:30N 29°57' W 093°11'2 4.0
2017-Sep-13 10:00N 29°56' W 093°09'4 3.9
2017-Sep-13 09:00N 29°56' W 093°04'0 0.0
2017-Sep-13 08:28N 29°56' W 093°04'40 3.1
2017-Sep-12 19:31N 29°50' W 092°18'0 2.1
2017-Sep-12 19:30N 29°50' W 092°18'1 2.9
2017-Sep-12 19:00N 29°49' W 092°17'1 2.9
2017-Sep-12 18:30N 29°48' W 092°16'2 3.1
2017-Sep-12 18:00N 29°48' W 092°14'2 3.3
2017-Sep-12 17:31N 29°47' W 092°12'0 0.3
2017-Sep-12 17:00N 29°47' W 092°12'1 1.6
2017-Sep-12 16:31N 29°47' W 092°11'1 2.4
2017-Sep-12 16:01N 29°47' W 092°10'2 3.5
2017-Sep-12 15:30N 29°47' W 092°08'2 3.7
2017-Sep-12 15:01N 29°48' W 092°06'2 3.6
2017-Sep-12 14:30N 29°48' W 092°04'  
2017-Sep-09 15:28N 29°49' W 092°04'3 6.3
2017-Sep-09 15:00N 29°48' W 092°07'3 6.0
2017-Sep-09 14:29N 29°47' W 092°10'2 4.9
2017-Sep-09 13:59N 29°47' W 092°13'2 4.2
2017-Sep-09 13:29N 29°48' W 092°15'3 5.4
2017-Sep-09 13:00N 29°50' W 092°18'29 5.5
2017-Sep-09 07:47N 29°58' W 092°49'2 5.9
2017-Sep-09 07:30N 29°57' W 092°51'3 5.7
2017-Sep-09 06:57N 29°56' W 092°55'2 5.4
2017-Sep-09 06:30N 29°56' W 092°57'9 4.8
2017-Sep-09 04:34N 29°56' W 093°08'0 5.3
2017-Sep-09 04:29N 29°56' W 093°08'3 4.8
2017-Sep-09 03:50N 29°58' W 093°11'3 5.0
2017-Sep-09 03:10N 30°01' W 093°14'1 5.0
2017-Sep-09 03:00N 30°01' W 093°14'3 4.4
2017-Sep-09 02:22N 30°04' W 093°16'2 4.5
2017-Sep-09 02:00N 30°05' W 093°17'2 3.2
2017-Sep-09 01:21N 30°06' W 093°19'1 3.1
2017-Sep-09 01:00N 30°05' W 093°20'2 4.7
2017-Sep-09 00:30N 30°04' W 093°22'0 0.4
2017-Sep-09 00:00N 30°04' W 093°22'0 0.1
2017-Sep-08 23:30N 30°04' W 093°22'0 0.0
2017-Sep-08 23:00N 30°04' W 093°22'0 0.0
2017-Sep-08 22:30N 30°04' W 093°22'0 0.0
2017-Sep-08 22:00N 30°04' W 093°22'0 0.1
2017-Sep-08 21:30N 30°04' W 093°22'0 1.0
2017-Sep-08 21:00N 30°04' W 093°22'1 1.3
2017-Sep-08 20:30N 30°04' W 093°21'1 2.7
2017-Sep-08 20:00N 30°05' W 093°20'0 0.2
2017-Sep-08 19:30N 30°05' W 093°20'0 0.4
2017-Sep-08 19:00N 30°05' W 093°20'0 0.0
2017-Sep-08 18:30N 30°05' W 093°20'2 3.0
2017-Sep-08 18:00N 30°06' W 093°18'2 4.0
2017-Sep-08 17:30N 30°05' W 093°17'1 2.3
2017-Sep-08 17:00N 30°04' W 093°16'2 3.3
2017-Sep-08 16:30N 30°05' W 093°17'0 0.0
2017-Sep-08 16:00N 30°05' W 093°17'1 1.6
2017-Sep-08 15:30N 30°05' W 093°18'3 5.1
2017-Sep-08 15:00N 30°04' W 093°20'1 2.4
2017-Sep-08 14:30N 30°04' W 093°21'2 3.5
2017-Sep-08 14:00N 30°05' W 093°20'2 3.9
2017-Sep-08 13:30N 30°06' W 093°18'2 4.2
2017-Sep-08 13:00N 30°05' W 093°17'1 2.2
2017-Sep-08 12:30N 30°04' W 093°16'2 4.8
2017-Sep-08 12:00N 30°05' W 093°18'2 5.0
2017-Sep-08 11:30N 30°04' W 093°20'1 0.9
2017-Sep-08 09:54N 30°06' W 093°19'3 2.7
2017-Sep-08 08:49N 30°04' W 093°16'1 1.7
2017-Sep-08 08:18N 30°04' W 093°16'0 0.2
2017-Sep-08 07:55N 30°04' W 093°16'0 0.2
2017-Sep-08 07:30N 30°04' W 093°16'0 0.1
2017-Sep-08 06:44N 30°04' W 093°16'1 1.8
2017-Sep-08 06:16N 30°03' W 093°16'5 3.7
2017-Sep-08 04:57N 29°59' W 093°12'3 2.8
2017-Sep-08 03:53N 29°57' W 093°10'44 3.4
2017-Sep-07 15:02N 29°50' W 092°19'0 3.0
2017-Sep-07 14:53N 29°50' W 092°19'1 2.7
2017-Sep-07 14:24N 29°50' W 092°18'1 2.8
2017-Sep-07 14:00N 29°49' W 092°17'2 3.1
2017-Sep-07 13:31N 29°48' W 092°15'1 2.8
2017-Sep-07 13:01N 29°48' W 092°14'1 2.8
2017-Sep-07 12:31N 29°47' W 092°12'0 0.4
2017-Sep-07 12:00N 29°47' W 092°12'1 1.7
2017-Sep-07 11:31N 29°47' W 092°11'0 0.0
2017-Sep-07 11:01N 29°47' W 092°11'1 2.3
2017-Sep-07 10:30N 29°47' W 092°10'1 2.6
2017-Sep-07 10:00N 29°47' W 092°08'2 3.0
2017-Sep-07 09:28N 29°48' W 092°07'1 2.9
2017-Sep-07 09:00N 29°48' W 092°05'1 2.8
2017-Sep-07 08:30N 29°49' W 092°04'3 2.6
2017-Sep-07 07:30N 29°49' W 092°01'  
2017-Sep-04 04:26N 29°49' W 092°02'2 5.7
2017-Sep-04 04:01N 29°48' W 092°05'2 5.0
2017-Sep-04 03:31N 29°47' W 092°08'1 1.5
2017-Sep-04 03:00N 29°48' W 092°08'1 2.8
2017-Sep-04 02:31N 29°49' W 092°08'1 2.1
2017-Sep-04 02:00N 29°50' W 092°08'0 0.2
2017-Sep-04 01:31N 29°50' W 092°08'0 0.0
2017-Sep-04 01:01N 29°50' W 092°08'0 0.1
2017-Sep-04 00:31N 29°50' W 092°08'0 0.1
2017-Sep-04 00:01N 29°50' W 092°08'1 2.4
2017-Sep-03 23:30N 29°51' W 092°08'  

Dump ship's entire track history